sensor_id;sensor_type;location;lat;lon;timestamp;pressure;altitude;pressure_sealevel;temperature;humidity
57606;BME280;43430;48.204;11.556;2022-08-03T00:01:39;96075.19;;;18.21;76.48
57606;BME280;43430;48.204;11.556;2022-08-03T00:04:05;96075.97;;;18.21;77.27
57606;BME280;43430;48.204;11.556;2022-08-03T00:06:31;96068.75;;;18.17;76.51
57606;BME280;43430;48.204;11.556;2022-08-03T00:08:56;96084.75;;;18.17;78.12
57606;BME280;43430;48.204;11.556;2022-08-03T00:11:22;96075.97;;;18.16;77.38
57606;BME280;43430;48.204;11.556;2022-08-03T00:13:47;96072.50;;;18.21;77.48
57606;BME280;43430;48.204;11.556;2022-08-03T00:16:13;96069.84;;;18.21;76.59
57606;BME280;43430;48.204;11.556;2022-08-03T00:18:39;96070.91;;;18.15;76.87
57606;BME280;43430;48.204;11.556;2022-08-03T00:21:05;96071.16;;;18.08;77.24
57606;BME280;43430;48.204;11.556;2022-08-03T00:23:31;96070.34;;;18.13;78.04
57606;BME280;43430;48.204;11.556;2022-08-03T00:25:56;96069.81;;;18.16;76.94
57606;BME280;43430;48.204;11.556;2022-08-03T00:28:22;96075.19;;;18.11;77.40
57606;BME280;43430;48.204;11.556;2022-08-03T00:30:47;96069.84;;;18.00;77.66
57606;BME280;43430;48.204;11.556;2022-08-03T00:33:13;96067.69;;;17.92;77.73
57606;BME280;43430;48.204;11.556;2022-08-03T00:35:38;96067.44;;;17.94;78.45
57606;BME280;43430;48.204;11.556;2022-08-03T00:38:04;96069.56;;;17.87;77.71
57606;BME280;43430;48.204;11.556;2022-08-03T00:40:30;96067.41;;;17.84;78.64
57606;BME280;43430;48.204;11.556;2022-08-03T00:43:02;96072.22;;;17.87;78.66
57606;BME280;43430;48.204;11.556;2022-08-03T00:45:31;96070.59;;;17.86;78.50
57606;BME280;43430;48.204;11.556;2022-08-03T00:47:57;96066.09;;;17.91;79.57
57606;BME280;43430;48.204;11.556;2022-08-03T00:50:25;96069.84;;;17.90;78.34
57606;BME280;43430;48.204;11.556;2022-08-03T00:52:54;96068.75;;;17.86;79.42
57606;BME280;43430;48.204;11.556;2022-08-03T00:55:20;96067.13;;;17.85;78.88
57606;BME280;43430;48.204;11.556;2022-08-03T00:57:46;96066.88;;;17.82;78.77
57606;BME280;43430;48.204;11.556;2022-08-03T01:00:13;96064.72;;;17.73;79.14
57606;BME280;43430;48.204;11.556;2022-08-03T01:02:40;96067.09;;;17.65;79.62
57606;BME280;43430;48.204;11.556;2022-08-03T01:05:06;96068.94;;;17.64;79.79
57606;BME280;43430;48.204;11.556;2022-08-03T01:08:04;96068.44;;;17.62;79.99
57606;BME280;43430;48.204;11.556;2022-08-03T01:16:32;96066.50;;;17.47;81.01
57606;BME280;43430;48.204;11.556;2022-08-03T01:22:56;96059.03;;;17.44;81.80
57606;BME280;43430;48.204;11.556;2022-08-03T01:30:42;96057.72;;;17.47;80.86
57606;BME280;43430;48.204;11.556;2022-08-03T01:33:17;96057.47;;;17.48;80.69
57606;BME280;43430;48.204;11.556;2022-08-03T01:35:50;96049.16;;;17.40;81.73
57606;BME280;43430;48.204;11.556;2022-08-03T01:38:23;96042.22;;;17.33;80.96
57606;BME280;43430;48.204;11.556;2022-08-03T01:40:52;96045.69;;;17.34;81.59
57606;BME280;43430;48.204;11.556;2022-08-03T01:43:20;96053.94;;;17.38;81.75
57606;BME280;43430;48.204;11.556;2022-08-03T01:45:48;96051.59;;;17.41;82.21
57606;BME280;43430;48.204;11.556;2022-08-03T01:48:16;96051.31;;;17.43;81.13
57606;BME280;43430;48.204;11.556;2022-08-03T01:50:43;96045.13;;;17.27;81.58
57606;BME280;43430;48.204;11.556;2022-08-03T01:53:13;96049.88;;;17.09;82.13
57606;BME280;43430;48.204;11.556;2022-08-03T01:55:39;96048.50;;;17.02;82.87
57606;BME280;43430;48.204;11.556;2022-08-03T01:58:07;96043.47;;;17.05;83.19
57606;BME280;43430;48.204;11.556;2022-08-03T02:00:36;96046.69;;;17.07;82.74
57606;BME280;43430;48.204;11.556;2022-08-03T02:03:06;96050.38;;;17.06;82.41
57606;BME280;43430;48.204;11.556;2022-08-03T02:05:33;96045.84;;;16.97;82.59
57606;BME280;43430;48.204;11.556;2022-08-03T02:08:00;96042.06;;;16.93;83.08
57606;BME280;43430;48.204;11.556;2022-08-03T02:10:28;96054.59;;;16.87;82.42
57606;BME280;43430;48.204;11.556;2022-08-03T02:12:56;96051.88;;;16.77;83.76
57606;BME280;43430;48.204;11.556;2022-08-03T02:15:26;96056.97;;;16.83;83.51
57606;BME280;43430;48.204;11.556;2022-08-03T02:17:53;96050.84;;;16.83;83.70
57606;BME280;43430;48.204;11.556;2022-08-03T02:20:19;96052.97;;;16.86;83.89
57606;BME280;43430;48.204;11.556;2022-08-03T02:22:45;96055.91;;;16.84;83.71
57606;BME280;43430;48.204;11.556;2022-08-03T02:25:12;96051.69;;;16.94;84.44
57606;BME280;43430;48.204;11.556;2022-08-03T02:27:52;96051.13;;;16.87;82.68
57606;BME280;43430;48.204;11.556;2022-08-03T02:30:20;96050.22;;;16.71;83.92
57606;BME280;43430;48.204;11.556;2022-08-03T02:32:50;96050.19;;;16.66;84.18
57606;BME280;43430;48.204;11.556;2022-08-03T02:35:20;96051.50;;;16.63;84.89
57606;BME280;43430;48.204;11.556;2022-08-03T02:37:51;96053.09;;;16.64;84.40
57606;BME280;43430;48.204;11.556;2022-08-03T02:40:18;96059.16;;;16.54;84.50
57606;BME280;43430;48.204;11.556;2022-08-03T02:42:45;96062.31;;;16.46;84.77
57606;BME280;43430;48.204;11.556;2022-08-03T02:45:11;96062.53;;;16.40;85.27
57606;BME280;43430;48.204;11.556;2022-08-03T02:47:40;96058.28;;;16.44;85.11
57606;BME280;43430;48.204;11.556;2022-08-03T02:50:10;96053.78;;;16.44;84.81
57606;BME280;43430;48.204;11.556;2022-08-03T02:52:37;96050.06;;;16.45;84.82
57606;BME280;43430;48.204;11.556;2022-08-03T02:55:05;96053.78;;;16.44;85.54
57606;BME280;43430;48.204;11.556;2022-08-03T02:57:32;96057.22;;;16.45;85.44
57606;BME280;43430;48.204;11.556;2022-08-03T02:59:58;96050.06;;;16.45;86.00
57606;BME280;43430;48.204;11.556;2022-08-03T03:02:24;96054.31;;;16.46;85.30
57606;BME280;43430;48.204;11.556;2022-08-03T03:04:51;96055.34;;;16.40;85.79
57606;BME280;43430;48.204;11.556;2022-08-03T03:07:17;96056.91;;;16.36;85.79
57606;BME280;43430;48.204;11.556;2022-08-03T03:09:44;96045.44;;;16.30;86.07
57606;BME280;43430;48.204;11.556;2022-08-03T03:12:12;96053.19;;;16.37;86.49
57606;BME280;43430;48.204;11.556;2022-08-03T03:14:38;96047.06;;;16.31;85.93
57606;BME280;43430;48.204;11.556;2022-08-03T03:17:06;96044.56;;;16.20;86.54
57606;BME280;43430;48.204;11.556;2022-08-03T03:19:34;96042.97;;;16.19;87.41
57606;BME280;43430;48.204;11.556;2022-08-03T03:22:01;96044.03;;;16.18;86.95
57606;BME280;43430;48.204;11.556;2022-08-03T03:24:28;96036.06;;;16.23;87.58
57606;BME280;43430;48.204;11.556;2022-08-03T03:26:54;96048.31;;;16.24;86.44
57606;BME280;43430;48.204;11.556;2022-08-03T03:29:20;96045.13;;;16.22;87.21
57606;BME280;43430;48.204;11.556;2022-08-03T03:31:46;96049.34;;;16.18;87.37
57606;BME280;43430;48.204;11.556;2022-08-03T03:34:11;96040.31;;;16.19;87.09
57606;BME280;43430;48.204;11.556;2022-08-03T03:36:38;96046.72;;;16.23;86.74
57606;BME280;43430;48.204;11.556;2022-08-03T03:39:03;96045.13;;;16.22;86.98
57606;BME280;43430;48.204;11.556;2022-08-03T03:41:29;96052.31;;;16.26;87.31
57606;BME280;43430;48.204;11.556;2022-08-03T03:43:54;96051.47;;;16.21;86.10
57606;BME280;43430;48.204;11.556;2022-08-03T03:46:20;96053.84;;;16.17;87.17
57606;BME280;43430;48.204;11.556;2022-08-03T03:48:46;96056.28;;;16.19;86.92
57606;BME280;43430;48.204;11.556;2022-08-03T03:51:12;96051.25;;;16.22;87.04
57606;BME280;43430;48.204;11.556;2022-08-03T03:53:37;96050.66;;;16.15;87.00
57606;BME280;43430;48.204;11.556;2022-08-03T03:56:03;96055.91;;;16.10;86.39
57606;BME280;43430;48.204;11.556;2022-08-03T03:58:29;96054.38;;;16.14;86.46
57606;BME280;43430;48.204;11.556;2022-08-03T04:00:55;96054.69;;;16.18;87.09
57606;BME280;43430;48.204;11.556;2022-08-03T04:03:20;96055.75;;;16.22;87.00
57606;BME280;43430;48.204;11.556;2022-08-03T04:05:46;96058.16;;;16.23;86.08
57606;BME280;43430;48.204;11.556;2022-08-03T04:08:30;96057.34;;;16.23;86.62
57606;BME280;43430;48.204;11.556;2022-08-03T04:13:57;96060.03;;;16.23;86.13
57606;BME280;43430;48.204;11.556;2022-08-03T04:16:27;96056.28;;;16.24;86.10
57606;BME280;43430;48.204;11.556;2022-08-03T04:18:58;96059.47;;;16.21;86.36
57606;BME280;43430;48.204;11.556;2022-08-03T04:21:26;96062.72;;;16.28;86.61
57606;BME280;43430;48.204;11.556;2022-08-03T04:23:55;96058.22;;;16.33;86.82
57606;BME280;43430;48.204;11.556;2022-08-03T04:26:26;96060.16;;;16.38;85.56
57606;BME280;43430;48.204;11.556;2022-08-03T04:28:53;96058.59;;;16.47;85.91
57606;BME280;43430;48.204;11.556;2022-08-03T04:31:21;96059.22;;;16.65;85.43
57606;BME280;43430;48.204;11.556;2022-08-03T04:33:49;96058.56;;;16.84;84.04
57606;BME280;43430;48.204;11.556;2022-08-03T04:36:18;96059.41;;;16.95;82.88
57606;BME280;43430;48.204;11.556;2022-08-03T04:39:26;96060.25;;;17.06;82.33
57606;BME280;43430;48.204;11.556;2022-08-03T04:41:44;96060.66;;;17.45;81.72
57606;BME280;43430;48.204;11.556;2022-08-03T04:44:10;96064.94;;;17.56;80.41
57606;BME280;43430;48.204;11.556;2022-08-03T04:46:38;96064.16;;;17.66;80.82
57606;BME280;43430;48.204;11.556;2022-08-03T04:49:05;96070.03;;;17.73;79.47
57606;BME280;43430;48.204;11.556;2022-08-03T04:51:30;96071.94;;;17.88;79.84
57606;BME280;43430;48.204;11.556;2022-08-03T04:53:56;96073.03;;;17.97;78.00
57606;BME280;43430;48.204;11.556;2022-08-03T04:56:21;96069.84;;;18.11;78.14
57606;BME280;43430;48.204;11.556;2022-08-03T04:58:47;96071.97;;;18.29;77.12
57606;BME280;43430;48.204;11.556;2022-08-03T05:01:12;96068.72;;;18.47;76.54
57606;BME280;43430;48.204;11.556;2022-08-03T05:03:38;96073.47;;;18.91;75.83
57606;BME280;43430;48.204;11.556;2022-08-03T05:06:03;96065.53;;;19.41;73.44
57606;BME280;43430;48.204;11.556;2022-08-03T05:08:28;96063.47;;;19.82;70.42
57606;BME280;43430;48.204;11.556;2022-08-03T05:10:55;96062.16;;;20.09;69.64
57606;BME280;43430;48.204;11.556;2022-08-03T05:13:20;96064.59;;;20.39;68.50
57606;BME280;43430;48.204;11.556;2022-08-03T05:15:46;96060.97;;;20.59;67.49
57606;BME280;43430;48.204;11.556;2022-08-03T05:18:11;96065.91;;;20.71;66.34
57606;BME280;43430;48.204;11.556;2022-08-03T05:20:37;96073.66;;;20.44;67.38
57606;BME280;43430;48.204;11.556;2022-08-03T05:23:02;96078.59;;;20.66;66.14
57606;BME280;43430;48.204;11.556;2022-08-03T05:25:28;96081.78;;;20.92;64.89
57606;BME280;43430;48.204;11.556;2022-08-03T05:27:54;96073.19;;;20.95;64.16
57606;BME280;43430;48.204;11.556;2022-08-03T05:30:20;96077.28;;;20.87;65.91
57606;BME280;43430;48.204;11.556;2022-08-03T05:32:45;96084.09;;;21.03;64.93
57606;BME280;43430;48.204;11.556;2022-08-03T05:35:10;96081.78;;;21.16;63.74
57606;BME280;43430;48.204;11.556;2022-08-03T05:37:36;96075.19;;;21.08;63.15
57606;BME280;43430;48.204;11.556;2022-08-03T05:40:02;96077.91;;;20.79;64.99
57606;BME280;43430;48.204;11.556;2022-08-03T05:42:28;96079.38;;;20.66;65.73
57606;BME280;43430;48.204;11.556;2022-08-03T05:44:53;96082.53;;;20.39;65.26
57606;BME280;43430;48.204;11.556;2022-08-03T05:47:18;96084.09;;;20.45;66.05
57606;BME280;43430;48.204;11.556;2022-08-03T05:49:44;96075.41;;;20.29;65.33
57606;BME280;43430;48.204;11.556;2022-08-03T05:52:09;96073.47;;;20.35;65.83
57606;BME280;43430;48.204;11.556;2022-08-03T05:54:34;96074.44;;;20.15;65.79
57606;BME280;43430;48.204;11.556;2022-08-03T05:57:00;96080.28;;;20.22;66.22
57606;BME280;43430;48.204;11.556;2022-08-03T05:59:25;96078.38;;;20.23;65.15
57606;BME280;43430;48.204;11.556;2022-08-03T06:01:51;96080.19;;;20.32;66.14
57606;BME280;43430;48.204;11.556;2022-08-03T06:04:16;96074.50;;;20.39;65.94
57606;BME280;43430;48.204;11.556;2022-08-03T06:06:42;96074.19;;;20.46;67.10
57606;BME280;43430;48.204;11.556;2022-08-03T06:09:08;96076.75;;;20.61;65.18
57606;BME280;43430;48.204;11.556;2022-08-03T06:11:35;96077.91;;;20.79;64.75
57606;BME280;43430;48.204;11.556;2022-08-03T06:14:00;96077.91;;;20.79;65.49
57606;BME280;43430;48.204;11.556;2022-08-03T06:16:25;96085.84;;;20.65;64.43
57606;BME280;43430;48.204;11.556;2022-08-03T06:18:51;96078.50;;;20.76;64.75
57606;BME280;43430;48.204;11.556;2022-08-03T06:21:16;96080.38;;;20.99;64.17
57606;BME280;43430;48.204;11.556;2022-08-03T06:23:42;96089.56;;;21.17;63.50
57606;BME280;43430;48.204;11.556;2022-08-03T06:26:08;96084.88;;;21.28;63.05
57606;BME280;43430;48.204;11.556;2022-08-03T06:28:33;96089.63;;;21.36;62.36
57606;BME280;43430;48.204;11.556;2022-08-03T06:30:58;96087.81;;;21.50;62.22
57606;BME280;43430;48.204;11.556;2022-08-03T06:33:24;96089.22;;;21.48;62.49
57606;BME280;43430;48.204;11.556;2022-08-03T06:35:50;96092.63;;;21.53;61.97
57606;BME280;43430;48.204;11.556;2022-08-03T06:38:16;96092.91;;;21.71;60.22
57606;BME280;43430;48.204;11.556;2022-08-03T06:40:41;96094.66;;;21.80;58.53
57606;BME280;43430;48.204;11.556;2022-08-03T06:43:07;96092.41;;;21.88;58.77
57606;BME280;43430;48.204;11.556;2022-08-03T06:45:32;96092.13;;;21.89;59.81
57606;BME280;43430;48.204;11.556;2022-08-03T06:48:03;96087.78;;;21.55;60.93
57606;BME280;43430;48.204;11.556;2022-08-03T06:50:29;96090.75;;;21.73;60.98
57606;BME280;43430;48.204;11.556;2022-08-03T06:52:54;96091.41;;;21.84;60.69
57606;BME280;43430;48.204;11.556;2022-08-03T06:55:20;96094.53;;;22.10;59.39
57606;BME280;43430;48.204;11.556;2022-08-03T06:57:46;96094.59;;;22.23;58.23
57606;BME280;43430;48.204;11.556;2022-08-03T07:00:11;96083.75;;;22.28;57.54
57606;BME280;43430;48.204;11.556;2022-08-03T07:02:38;96089.72;;;22.25;57.68
57606;BME280;43430;48.204;11.556;2022-08-03T07:05:04;96089.06;;;22.34;56.74
57606;BME280;43430;48.204;11.556;2022-08-03T07:07:29;96090.88;;;22.38;56.37
57606;BME280;43430;48.204;11.556;2022-08-03T07:09:55;96086.88;;;22.36;56.05
57606;BME280;43430;48.204;11.556;2022-08-03T07:12:20;96085.94;;;22.59;54.20
57606;BME280;43430;48.204;11.556;2022-08-03T07:14:45;96090.03;;;22.70;53.85
57606;BME280;43430;48.204;11.556;2022-08-03T07:17:11;96087.47;;;22.79;52.95
57606;BME280;43430;48.204;11.556;2022-08-03T07:19:36;96093.97;;;22.78;52.71
57606;BME280;43430;48.204;11.556;2022-08-03T07:22:01;96087.75;;;22.78;53.47
57606;BME280;43430;48.204;11.556;2022-08-03T07:24:28;96082.41;;;22.91;52.44
57606;BME280;43430;48.204;11.556;2022-08-03T07:26:53;96079.06;;;23.13;51.86
57606;BME280;43430;48.204;11.556;2022-08-03T07:29:19;96079.72;;;23.33;50.38
57606;BME280;43430;48.204;11.556;2022-08-03T07:31:44;96074.06;;;23.20;51.00
57606;BME280;43430;48.204;11.556;2022-08-03T07:34:10;96071.97;;;23.17;51.96
57606;BME280;43430;48.204;11.556;2022-08-03T07:36:35;96067.69;;;23.30;52.04
57606;BME280;43430;48.204;11.556;2022-08-03T07:39:00;96055.59;;;23.55;51.17
57606;BME280;43430;48.204;11.556;2022-08-03T07:41:26;96061.84;;;23.64;50.62
57606;BME280;43430;48.204;11.556;2022-08-03T07:43:51;96058.16;;;23.60;50.65
57606;BME280;43430;48.204;11.556;2022-08-03T07:46:16;96062.22;;;23.85;49.92
57606;BME280;43430;48.204;11.556;2022-08-03T07:48:42;96060.84;;;23.74;50.10
57606;BME280;43430;48.204;11.556;2022-08-03T07:51:07;96063.94;;;23.81;49.76
57606;BME280;43430;48.204;11.556;2022-08-03T07:53:33;96065.47;;;23.96;50.50
57606;BME280;43430;48.204;11.556;2022-08-03T07:55:58;96057.16;;;24.06;49.79
57606;BME280;43430;48.204;11.556;2022-08-03T07:58:23;96066.03;;;24.07;49.99
57606;BME280;43430;48.204;11.556;2022-08-03T08:00:49;96055.94;;;24.12;50.25
57606;BME280;43430;48.204;11.556;2022-08-03T08:03:17;96046.69;;;24.27;49.95
57606;BME280;43430;48.204;11.556;2022-08-03T08:05:42;96047.59;;;24.45;48.85
57606;BME280;43430;48.204;11.556;2022-08-03T08:08:08;96051.59;;;24.48;48.62
57606;BME280;43430;48.204;11.556;2022-08-03T08:10:33;96052.56;;;24.52;48.13
57606;BME280;43430;48.204;11.556;2022-08-03T08:12:59;96050.63;;;24.44;49.29
57606;BME280;43430;48.204;11.556;2022-08-03T08:15:26;96051.28;;;24.27;49.09
57606;BME280;43430;48.204;11.556;2022-08-03T08:17:54;96050.06;;;24.33;48.68
57606;BME280;43430;48.204;11.556;2022-08-03T08:20:25;96056.38;;;24.51;49.56
57606;BME280;43430;48.204;11.556;2022-08-03T08:22:51;96043.44;;;24.70;48.46
57606;BME280;43430;48.204;11.556;2022-08-03T08:25:16;96051.25;;;24.80;47.86
57606;BME280;43430;48.204;11.556;2022-08-03T08:27:46;96048.63;;;24.98;48.10
57606;BME280;43430;48.204;11.556;2022-08-03T08:30:13;96048.44;;;25.17;46.66
57606;BME280;43430;48.204;11.556;2022-08-03T08:32:39;96042.88;;;25.22;47.52
57606;BME280;43430;48.204;11.556;2022-08-03T08:35:06;96046.41;;;25.31;46.38
57606;BME280;43430;48.204;11.556;2022-08-03T08:37:32;96043.38;;;25.32;47.13
57606;BME280;43430;48.204;11.556;2022-08-03T08:39:58;96046.09;;;25.41;46.72
57606;BME280;43430;48.204;11.556;2022-08-03T08:42:23;96040.41;;;25.51;46.63
57606;BME280;43430;48.204;11.556;2022-08-03T08:44:49;96040.50;;;25.29;47.95
57606;BME280;43430;48.204;11.556;2022-08-03T08:47:15;96038.13;;;25.36;48.50
57606;BME280;43430;48.204;11.556;2022-08-03T08:49:42;96034.19;;;25.60;48.16
57606;BME280;43430;48.204;11.556;2022-08-03T08:52:08;96039.44;;;25.73;46.76
57606;BME280;43430;48.204;11.556;2022-08-03T08:54:35;96032.84;;;25.88;46.69
57606;BME280;43430;48.204;11.556;2022-08-03T08:57:02;96038.56;;;25.95;46.27
57606;BME280;43430;48.204;11.556;2022-08-03T08:59:32;96024.72;;;26.06;45.54
57606;BME280;43430;48.204;11.556;2022-08-03T09:01:58;96027.72;;;26.13;45.10
57606;BME280;43430;48.204;11.556;2022-08-03T09:04:24;96037.41;;;26.22;44.91
57606;BME280;43430;48.204;11.556;2022-08-03T09:06:50;96030.09;;;26.23;44.58
57606;BME280;43430;48.204;11.556;2022-08-03T09:09:16;96034.22;;;26.29;45.73
57606;BME280;43430;48.204;11.556;2022-08-03T09:11:42;96030.50;;;26.42;43.80
57606;BME280;43430;48.204;11.556;2022-08-03T09:14:08;96030.38;;;26.47;42.18
57606;BME280;43430;48.204;11.556;2022-08-03T09:16:34;96029.75;;;26.33;42.25
57606;BME280;43430;48.204;11.556;2022-08-03T09:19:11;96030.56;;;26.25;43.87
57606;BME280;43430;48.204;11.556;2022-08-03T09:21:38;96026.78;;;26.09;44.74
57606;BME280;43430;48.204;11.556;2022-08-03T09:24:05;96022.94;;;26.27;43.57
57606;BME280;43430;48.204;11.556;2022-08-03T09:26:32;96028.97;;;26.24;42.84
57606;BME280;43430;48.204;11.556;2022-08-03T09:28:59;96022.94;;;26.27;41.98
57606;BME280;43430;48.204;11.556;2022-08-03T09:31:32;96025.63;;;26.27;42.79
57606;BME280;43430;48.204;11.556;2022-08-03T09:34:00;96018.59;;;26.35;42.34
57606;BME280;43430;48.204;11.556;2022-08-03T09:39:07;96020.84;;;26.50;41.12
57606;BME280;43430;48.204;11.556;2022-08-03T09:41:35;96024.91;;;26.65;41.59
57606;BME280;43430;48.204;11.556;2022-08-03T09:44:00;96029.75;;;26.50;41.95
57606;BME280;43430;48.204;11.556;2022-08-03T09:46:26;96037.66;;;26.64;42.05
57606;BME280;43430;48.204;11.556;2022-08-03T09:49:08;96031.28;;;26.69;41.86
57606;BME280;43430;48.204;11.556;2022-08-03T09:51:33;96025.22;;;26.72;41.99
57606;BME280;43430;48.204;11.556;2022-08-03T09:53:59;96025.56;;;26.70;42.55
57606;BME280;43430;48.204;11.556;2022-08-03T09:56:41;96023.44;;;26.76;42.05
57606;BME280;43430;48.204;11.556;2022-08-03T09:59:09;96027.19;;;26.92;42.24
57606;BME280;43430;48.204;11.556;2022-08-03T10:01:35;96033.19;;;27.07;42.27
57606;BME280;43430;48.204;11.556;2022-08-03T10:04:02;96016.56;;;27.26;40.41
57606;BME280;43430;48.204;11.556;2022-08-03T10:06:27;96022.00;;;27.17;39.98
57606;BME280;43430;48.204;11.556;2022-08-03T10:09:11;96016.50;;;27.34;38.51
57606;BME280;43430;48.204;11.556;2022-08-03T10:11:37;96013.41;;;27.15;38.44
57606;BME280;43430;48.204;11.556;2022-08-03T10:14:04;96014.53;;;27.14;40.46
57606;BME280;43430;48.204;11.556;2022-08-03T10:16:38;96017.41;;;27.38;40.78
57606;BME280;43430;48.204;11.556;2022-08-03T10:19:06;96009.75;;;27.19;40.13
57606;BME280;43430;48.204;11.556;2022-08-03T10:21:33;96018.88;;;27.36;38.90
57606;BME280;43430;48.204;11.556;2022-08-03T10:24:02;96007.09;;;27.32;39.04
57606;BME280;43430;48.204;11.556;2022-08-03T10:26:30;96004.41;;;27.53;38.94
57606;BME280;43430;48.204;11.556;2022-08-03T10:28:59;95999.28;;;27.60;38.61
57606;BME280;43430;48.204;11.556;2022-08-03T10:31:33;95997.03;;;27.62;38.84
57606;BME280;43430;48.204;11.556;2022-08-03T10:34:01;96002.38;;;27.71;36.18
57606;BME280;43430;48.204;11.556;2022-08-03T10:36:30;95993.41;;;27.58;36.79
57606;BME280;43430;48.204;11.556;2022-08-03T10:38:56;95991.69;;;27.53;37.69
57606;BME280;43430;48.204;11.556;2022-08-03T10:41:35;95994.91;;;27.47;37.90
57606;BME280;43430;48.204;11.556;2022-08-03T10:44:03;95996.41;;;27.56;37.52
57606;BME280;43430;48.204;11.556;2022-08-03T10:46:30;95991.63;;;27.83;36.35
57606;BME280;43430;48.204;11.556;2022-08-03T10:48:57;95988.13;;;27.82;36.25
57606;BME280;43430;48.204;11.556;2022-08-03T10:51:23;95984.09;;;27.88;35.82
57606;BME280;43430;48.204;11.556;2022-08-03T10:53:49;95980.31;;;28.02;34.29
57606;BME280;43430;48.204;11.556;2022-08-03T10:59:18;95972.38;;;27.97;34.80
57606;BME280;43430;48.204;11.556;2022-08-03T11:01:51;95969.47;;;28.02;34.71
57606;BME280;43430;48.204;11.556;2022-08-03T11:04:18;95967.59;;;28.27;33.97
57606;BME280;43430;48.204;11.556;2022-08-03T11:06:45;95965.75;;;28.06;34.08
57606;BME280;43430;48.204;11.556;2022-08-03T11:11:40;95960.00;;;28.20;32.29
57606;BME280;43430;48.204;11.556;2022-08-03T11:14:11;95965.56;;;28.24;31.82
57606;BME280;43430;48.204;11.556;2022-08-03T11:16:43;95977.97;;;28.58;28.75
57606;BME280;43430;48.204;11.556;2022-08-03T11:19:12;95973.22;;;28.43;30.62
57606;BME280;43430;48.204;11.556;2022-08-03T11:30:07;95955.13;;;28.47;32.22
57606;BME280;43430;48.204;11.556;2022-08-03T11:46:08;95966.03;;;28.38;31.50
57606;BME280;43430;48.204;11.556;2022-08-03T11:48:44;95954.53;;;28.41;31.45
57606;BME280;43430;48.204;11.556;2022-08-03T11:51:28;95951.63;;;28.46;32.47
57606;BME280;43430;48.204;11.556;2022-08-03T11:54:04;95947.88;;;28.63;31.32
57606;BME280;43430;48.204;11.556;2022-08-03T11:57:02;95955.13;;;28.96;31.10
57606;BME280;43430;48.204;11.556;2022-08-03T11:59:31;95949.03;;;28.99;30.71
57606;BME280;43430;48.204;11.556;2022-08-03T12:02:11;95944.06;;;29.13;30.87
57606;BME280;43430;48.204;11.556;2022-08-03T12:04:50;95947.91;;;29.12;29.88
57606;BME280;43430;48.204;11.556;2022-08-03T12:07:15;95941.75;;;29.27;30.54
57606;BME280;43430;48.204;11.556;2022-08-03T12:09:42;95940.59;;;29.53;29.59
57606;BME280;43430;48.204;11.556;2022-08-03T12:12:07;95939.91;;;29.44;29.43
57606;BME280;43430;48.204;11.556;2022-08-03T12:14:33;95938.44;;;29.46;29.37
57606;BME280;43430;48.204;11.556;2022-08-03T12:16:58;95936.59;;;29.63;29.21
57606;BME280;43430;48.204;11.556;2022-08-03T12:19:24;95926.69;;;29.42;29.79
57606;BME280;43430;48.204;11.556;2022-08-03T12:21:49;95934.66;;;29.23;29.44
57606;BME280;43430;48.204;11.556;2022-08-03T12:24:16;95925.75;;;29.50;28.69
57606;BME280;43430;48.204;11.556;2022-08-03T12:26:47;95926.25;;;29.40;28.66
57606;BME280;43430;48.204;11.556;2022-08-03T12:29:20;95930.13;;;29.55;27.84
57606;BME280;43430;48.204;11.556;2022-08-03T12:31:46;95933.66;;;29.55;26.92
57606;BME280;43430;48.204;11.556;2022-08-03T12:34:12;95925.19;;;29.45;28.13
57606;BME280;43430;48.204;11.556;2022-08-03T12:36:49;95920.53;;;29.45;28.70
57606;BME280;43430;48.204;11.556;2022-08-03T12:39:15;95928.16;;;29.40;28.22
57606;BME280;43430;48.204;11.556;2022-08-03T12:41:40;95929.84;;;29.44;27.58
57606;BME280;43430;48.204;11.556;2022-08-03T12:44:07;95925.06;;;29.53;28.15
57606;BME280;43430;48.204;11.556;2022-08-03T12:46:35;95916.47;;;29.51;28.55
57606;BME280;43430;48.204;11.556;2022-08-03T12:49:03;95909.09;;;29.52;27.95
57606;BME280;43430;48.204;11.556;2022-08-03T12:51:30;95915.09;;;29.57;28.02
57606;BME280;43430;48.204;11.556;2022-08-03T12:53:57;95908.03;;;29.69;27.78
57606;BME280;43430;48.204;11.556;2022-08-03T12:56:23;95910.81;;;29.85;28.21
57606;BME280;43430;48.204;11.556;2022-08-03T12:58:49;95913.13;;;29.98;27.92
57606;BME280;43430;48.204;11.556;2022-08-03T13:01:15;95910.97;;;30.20;27.78
57606;BME280;43430;48.204;11.556;2022-08-03T13:03:45;95903.66;;;30.08;29.02
57606;BME280;43430;48.204;11.556;2022-08-03T13:06:15;95910.97;;;30.20;29.25
57606;BME280;43430;48.204;11.556;2022-08-03T13:08:42;95901.63;;;30.05;28.54
57606;BME280;43430;48.204;11.556;2022-08-03T13:11:22;95905.22;;;30.09;28.39
57606;BME280;43430;48.204;11.556;2022-08-03T13:13:48;95902.50;;;30.09;28.72
57606;BME280;43430;48.204;11.556;2022-08-03T13:16:14;95908.41;;;30.11;28.29
57606;BME280;43430;48.204;11.556;2022-08-03T13:18:39;95908.97;;;30.33;27.09
57606;BME280;43430;48.204;11.556;2022-08-03T13:21:04;95908.34;;;30.23;26.72
57606;BME280;43430;48.204;11.556;2022-08-03T13:23:30;95908.75;;;30.10;27.60
57606;BME280;43430;48.204;11.556;2022-08-03T13:25:56;95907.59;;;30.11;26.97
57606;BME280;43430;48.204;11.556;2022-08-03T13:28:21;95902.56;;;29.97;27.54
57606;BME280;43430;48.204;11.556;2022-08-03T13:30:47;95909.34;;;30.03;27.12
57606;BME280;43430;48.204;11.556;2022-08-03T13:33:12;95907.59;;;30.11;26.32
57606;BME280;43430;48.204;11.556;2022-08-03T13:35:38;95902.66;;;30.00;26.10
57606;BME280;43430;48.204;11.556;2022-08-03T13:38:04;95898.28;;;29.96;27.31
57606;BME280;43430;48.204;11.556;2022-08-03T13:40:29;95898.63;;;30.22;28.45